sensor_id;sensor_type;location;lat;lon;timestamp;P1;P4;P2;P0;N10;N4;N25;N1;N05;TS
77638;SPS30;66802;52.574;14.398;2023-02-12T00:00:01;4.43;4.43;4.42;4.17;33.30;33.29;33.28;33.17;28.83;0.48
77638;SPS30;66802;52.574;14.398;2023-02-12T00:02:28;5.03;5.02;5.00;4.70;37.55;37.55;37.53;37.39;32.47;0.49
77638;SPS30;66802;52.574;14.398;2023-02-12T00:04:53;4.72;4.70;4.68;4.40;35.10;35.09;35.07;34.93;30.33;0.49
77638;SPS30;66802;52.574;14.398;2023-02-12T00:07:19;5.28;5.26;5.22;4.88;38.97;38.96;38.93;38.76;33.61;0.50
77638;SPS30;66802;52.574;14.398;2023-02-12T00:09:45;5.26;5.23;5.17;4.82;38.51;38.50;38.47;38.29;33.17;0.51
77638;SPS30;66802;52.574;14.398;2023-02-12T00:12:10;5.16;5.12;5.05;4.70;37.51;37.50;37.47;37.27;32.27;0.51
77638;SPS30;66802;52.574;14.398;2023-02-12T00:14:36;5.11;5.08;5.01;4.67;37.27;37.26;37.23;37.04;32.08;0.51
77638;SPS30;66802;52.574;14.398;2023-02-12T00:17:02;5.04;5.02;4.98;4.67;37.26;37.25;37.23;37.07;32.16;0.50
77638;SPS30;66802;52.574;14.398;2023-02-12T00:19:28;5.18;5.17;5.13;4.81;38.39;38.38;38.36;38.20;33.14;0.51
77638;SPS30;66802;52.574;14.398;2023-02-12T00:21:54;4.86;4.84;4.79;4.48;35.75;35.74;35.72;35.56;30.83;0.51
77638;SPS30;66802;52.574;14.398;2023-02-12T00:24:19;4.77;4.74;4.69;4.38;34.95;34.94;34.92;34.75;30.12;0.51
77638;SPS30;66802;52.574;14.398;2023-02-12T00:26:45;4.75;4.73;4.67;4.36;34.81;34.80;34.78;34.61;29.98;0.51
77638;SPS30;66802;52.574;14.398;2023-02-12T00:29:12;5.02;4.99;4.94;4.62;36.87;36.86;36.84;36.67;31.78;0.50
77638;SPS30;66802;52.574;14.398;2023-02-12T00:31:38;4.69;4.67;4.62;4.31;34.41;34.40;34.38;34.22;29.65;0.51
77638;SPS30;66802;52.574;14.398;2023-02-12T00:34:04;4.81;4.77;4.69;4.34;34.65;34.64;34.61;34.40;29.75;0.53
77638;SPS30;66802;52.574;14.398;2023-02-12T00:36:30;5.08;5.05;4.99;4.64;37.05;37.04;37.02;36.83;31.89;0.50
77638;SPS30;66802;52.574;14.398;2023-02-12T00:38:57;4.61;4.59;4.54;4.23;33.80;33.79;33.77;33.61;29.12;0.50
77638;SPS30;66802;52.574;14.398;2023-02-12T00:41:24;4.96;4.95;4.93;4.63;36.97;36.96;36.95;36.81;31.96;0.47
77638;SPS30;66802;52.574;14.398;2023-02-12T00:43:50;4.67;4.65;4.62;4.33;34.59;34.59;34.57;34.42;29.87;0.48
77638;SPS30;66802;52.574;14.398;2023-02-12T00:46:16;4.73;4.70;4.64;4.32;34.48;34.47;34.44;34.27;29.67;0.50
77638;SPS30;66802;52.574;14.398;2023-02-12T00:48:42;5.04;5.00;4.92;4.56;36.41;36.40;36.37;36.16;31.28;0.50
77638;SPS30;66802;52.574;14.398;2023-02-12T00:51:08;5.57;5.54;5.49;5.12;40.90;40.88;40.86;40.67;35.25;0.49
77638;SPS30;66802;52.574;14.398;2023-02-12T00:53:33;5.60;5.57;5.51;5.15;41.09;41.08;41.05;40.85;35.40;0.50
77638;SPS30;66802;52.574;14.398;2023-02-12T00:55:59;5.28;5.25;5.18;4.81;38.43;38.41;38.39;38.18;33.05;0.51
77638;SPS30;66802;52.574;14.398;2023-02-12T00:58:26;5.25;5.22;5.16;4.81;38.41;38.40;38.38;38.19;33.08;0.51
77638;SPS30;66802;52.574;14.398;2023-02-12T05:01:39;7.63;7.00;5.75;3.99;31.89;31.80;31.48;29.90;23.42;0.74
77638;SPS30;66802;52.574;14.398;2023-02-12T05:04:06;7.27;6.72;5.62;4.03;32.26;32.18;31.89;30.49;24.24;0.71
77638;SPS30;66802;52.574;14.398;2023-02-12T05:06:34;7.93;7.33;6.13;4.41;35.28;35.19;34.89;33.36;26.54;0.71
77638;SPS30;66802;52.574;14.398;2023-02-12T05:09:00;7.98;7.32;6.00;4.14;33.08;32.98;32.64;30.98;24.21;0.72
77638;SPS30;66802;52.574;14.398;2023-02-12T05:11:26;8.71;7.94;6.42;4.29;34.35;34.24;33.85;31.94;24.62;0.75
77638;SPS30;66802;52.574;14.398;2023-02-12T05:13:51;8.52;7.79;6.32;4.27;34.20;34.09;33.71;31.87;24.69;0.74
77638;SPS30;66802;52.574;14.398;2023-02-12T05:16:18;8.50;7.72;6.17;4.02;32.19;32.08;31.68;29.74;22.65;0.77
77638;SPS30;66802;52.574;14.398;2023-02-12T05:18:45;7.91;7.24;5.91;4.03;32.25;32.16;31.81;30.13;23.44;0.73
77638;SPS30;66802;52.574;14.398;2023-02-12T05:21:11;8.17;7.48;6.09;4.14;33.13;33.03;32.67;30.92;24.02;0.73
77638;SPS30;66802;52.574;14.398;2023-02-12T05:23:37;8.82;8.03;6.44;4.25;34.03;33.91;33.50;31.52;24.14;0.75
77638;SPS30;66802;52.574;14.398;2023-02-12T05:26:05;8.36;7.59;6.04;3.92;31.33;31.22;30.83;28.90;21.94;0.76
77638;SPS30;66802;52.574;14.398;2023-02-12T05:28:33;8.54;7.76;6.22;4.08;32.64;32.53;32.14;30.20;23.07;0.76
77638;SPS30;66802;52.574;14.398;2023-02-12T05:30:59;8.71;7.94;6.40;4.26;34.12;34.01;33.62;31.69;24.38;0.74
77638;SPS30;66802;52.574;14.398;2023-02-12T05:33:27;9.06;8.21;6.50;4.16;33.26;33.14;32.70;30.57;23.05;0.76
77638;SPS30;66802;52.574;14.398;2023-02-12T05:35:52;8.71;7.94;6.40;4.27;34.13;34.02;33.63;31.70;24.39;0.74
77638;SPS30;66802;52.574;14.398;2023-02-12T05:38:19;7.83;7.20;5.95;4.16;33.30;33.21;32.88;31.29;24.62;0.71
77638;SPS30;66802;52.574;14.398;2023-02-12T05:40:45;7.74;7.06;5.71;3.83;30.63;30.53;30.18;28.49;21.98;0.74
77638;SPS30;66802;52.574;14.398;2023-02-12T05:43:11;8.25;7.49;5.96;3.85;30.83;30.72;30.33;28.42;21.55;0.76
77638;SPS30;66802;52.574;14.398;2023-02-12T05:45:37;8.23;7.50;6.03;3.99;31.93;31.83;31.45;29.61;22.72;0.76
77638;SPS30;66802;52.574;14.398;2023-02-12T05:48:05;7.51;6.80;5.41;3.49;27.90;27.80;27.44;25.70;19.46;0.77
77638;SPS30;66802;52.574;14.398;2023-02-12T05:50:32;6.59;6.01;4.85;3.24;25.95;25.86;25.57;24.11;18.58;0.73
77638;SPS30;66802;52.574;14.398;2023-02-12T05:53:00;7.83;7.13;5.73;3.80;30.41;30.30;29.95;28.20;21.64;0.74
77638;SPS30;66802;52.574;14.398;2023-02-12T05:55:26;6.99;6.35;5.08;3.32;26.57;26.48;26.15;24.56;18.73;0.76
77638;SPS30;66802;52.574;14.398;2023-02-12T05:57:52;6.26;5.77;4.78;3.37;26.92;26.85;26.59;25.34;19.99;0.72
77638;SPS30;66802;52.574;14.398;2023-02-12T06:00:17;6.43;5.91;4.87;3.41;27.26;27.18;26.91;25.61;20.13;0.73
77638;SPS30;66802;52.574;14.398;2023-02-12T06:02:43;6.87;6.27;5.08;3.41;27.32;27.23;26.92;25.42;19.64;0.75
77638;SPS30;66802;52.574;14.398;2023-02-12T06:05:09;7.16;6.52;5.26;3.50;27.99;27.90;27.57;25.99;19.98;0.75
77638;SPS30;66802;52.574;14.398;2023-02-12T06:07:34;7.20;6.52;5.15;3.28;26.28;26.18;25.83;24.13;18.17;0.77
77638;SPS30;66802;52.574;14.398;2023-02-12T06:10:00;6.94;6.29;5.00;3.24;25.90;25.80;25.47;23.87;18.10;0.76
77638;SPS30;66802;52.574;14.398;2023-02-12T06:12:25;6.06;5.54;4.51;3.07;24.58;24.50;24.24;22.95;17.83;0.73
77638;SPS30;66802;52.574;14.398;2023-02-12T06:14:51;5.77;5.31;4.38;3.06;24.46;24.39;24.15;22.97;18.06;0.72
77638;SPS30;66802;52.574;14.398;2023-02-12T06:17:16;5.64;5.18;4.24;2.93;23.41;23.34;23.10;21.92;17.14;0.72
77638;SPS30;66802;52.574;14.398;2023-02-12T06:19:42;6.34;5.79;4.68;3.15;25.18;25.10;24.82;23.43;18.10;0.76
77638;SPS30;66802;52.574;14.398;2023-02-12T06:22:07;6.47;5.90;4.76;3.18;25.45;25.37;25.08;23.66;18.23;0.78
77638;SPS30;66802;52.574;14.398;2023-02-12T06:24:33;6.02;5.47;4.39;2.89;23.15;23.07;22.79;21.44;16.41;0.78
77638;SPS30;66802;52.574;14.398;2023-02-12T06:26:59;5.92;5.38;4.32;2.84;22.75;22.67;22.40;21.07;16.12;0.77
77638;SPS30;66802;52.574;14.398;2023-02-12T06:29:24;6.26;5.69;4.56;3.00;24.04;23.95;23.66;22.25;17.02;0.77
77638;SPS30;66802;52.574;14.398;2023-02-12T06:31:50;6.27;5.73;4.67;3.17;25.39;25.31;25.04;23.70;18.41;0.75
77638;SPS30;66802;52.574;14.398;2023-02-12T06:34:16;5.83;5.34;4.36;2.98;23.82;23.75;23.50;22.26;17.33;0.74
77638;SPS30;66802;52.574;14.398;2023-02-12T06:36:43;6.36;5.83;4.77;3.28;26.23;26.15;25.88;24.55;19.16;0.73
77638;SPS30;66802;52.574;14.398;2023-02-12T06:39:13;5.85;5.42;4.55;3.30;26.40;26.34;26.12;25.01;19.97;0.70
77638;SPS30;66802;52.574;14.398;2023-02-12T06:41:40;5.32;4.92;4.14;3.00;23.99;23.93;23.73;22.73;18.14;0.70
77638;SPS30;66802;52.574;14.398;2023-02-12T06:44:06;5.92;5.42;4.43;3.03;24.27;24.20;23.94;22.69;17.68;0.74
77638;SPS30;66802;52.574;14.398;2023-02-12T06:46:32;6.70;6.10;4.91;3.26;26.12;26.03;25.73;24.24;18.62;0.75
77638;SPS30;66802;52.574;14.398;2023-02-12T06:48:59;5.96;5.45;4.45;3.04;24.29;24.22;23.96;22.69;17.66;0.73
77638;SPS30;66802;52.574;14.398;2023-02-12T06:51:25;6.53;5.99;4.91;3.38;27.07;27.00;26.72;25.35;19.81;0.74
77638;SPS30;66802;52.574;14.398;2023-02-12T06:53:53;7.37;6.74;5.47;3.70;29.61;29.52;29.19;27.60;21.39;0.75
77638;SPS30;66802;52.574;14.398;2023-02-12T06:56:20;7.09;6.45;5.17;3.39;27.14;27.04;26.71;25.11;19.18;0.76
77638;SPS30;66802;52.574;14.398;2023-02-12T06:58:53;8.01;7.23;5.66;3.54;28.30;28.19;27.79;25.85;19.25;0.78
77638;SPS30;66802;52.574;14.398;2023-02-12T07:01:22;7.39;6.69;5.30;3.40;27.18;27.08;26.72;24.99;18.86;0.75
77638;SPS30;66802;52.574;14.398;2023-02-12T07:03:50;6.72;6.14;4.96;3.33;26.61;26.52;26.22;24.75;19.09;0.74
77638;SPS30;66802;52.574;14.398;2023-02-12T07:06:18;7.60;6.90;5.51;3.58;28.68;28.58;28.22;26.48;20.14;0.77
77638;SPS30;66802;52.574;14.398;2023-02-12T07:08:45;8.03;7.31;5.87;3.87;30.97;30.86;30.49;28.69;21.97;0.76
77638;SPS30;66802;52.574;14.398;2023-02-12T07:11:11;7.82;7.08;5.59;3.55;28.43;28.32;27.94;26.09;19.61;0.78
77638;SPS30;66802;52.574;14.398;2023-02-12T07:13:38;8.98;8.12;6.39;4.04;32.37;32.24;31.80;29.66;22.24;0.77
77638;SPS30;66802;52.574;14.398;2023-02-12T07:16:08;8.74;7.89;6.20;3.90;31.24;31.12;30.68;28.59;21.37;0.76
77638;SPS30;66802;52.574;14.398;2023-02-12T07:18:37;8.19;7.42;5.90;3.82;30.54;30.43;30.04;28.15;21.34;0.76
77638;SPS30;66802;52.574;14.398;2023-02-12T07:21:03;8.97;8.08;6.31;3.90;31.26;31.13;30.68;28.48;21.11;0.79
77638;SPS30;66802;52.574;14.398;2023-02-12T07:23:31;8.87;8.03;6.36;4.07;32.55;32.43;32.00;29.92;22.56;0.78
77638;SPS30;66802;52.574;14.398;2023-02-12T07:25:57;8.73;7.91;6.27;4.03;32.26;32.14;31.72;29.68;22.43;0.77
77638;SPS30;66802;52.574;14.398;2023-02-12T07:28:42;8.68;7.87;6.25;4.03;32.24;32.12;31.70;29.69;22.47;0.77
77638;SPS30;66802;52.574;14.398;2023-02-12T07:31:21;9.37;8.54;6.89;4.60;36.77;36.65;36.23;34.16;26.30;0.75
77638;SPS30;66802;52.574;14.398;2023-02-12T07:33:47;8.98;8.24;6.76;4.68;37.42;37.32;36.94;35.07;27.45;0.72
77638;SPS30;66802;52.574;14.398;2023-02-12T07:36:14;8.72;8.02;6.61;4.62;36.92;36.82;36.45;34.67;27.24;0.70
77638;SPS30;66802;52.574;14.398;2023-02-12T07:38:42;8.74;8.04;6.63;4.64;37.11;37.01;36.64;34.86;27.42;0.70
77638;SPS30;66802;52.574;14.398;2023-02-12T07:43:40;8.88;8.15;6.67;4.60;36.81;36.70;36.32;34.47;26.93;0.73
77638;SPS30;66802;52.574;14.398;2023-02-12T07:46:15;8.97;8.20;6.68;4.55;36.39;36.28;35.89;33.97;26.40;0.73
77638;SPS30;66802;52.574;14.398;2023-02-12T07:48:44;8.86;8.01;6.33;4.04;32.32;32.20;31.77;29.68;22.35;0.77
77638;SPS30;66802;52.574;14.398;2023-02-12T07:51:12;10.15;9.13;7.10;4.34;34.78;34.63;34.11;31.59;23.27;0.80
77638;SPS30;66802;52.574;14.398;2023-02-12T07:53:40;9.22;8.34;6.59;4.19;33.53;33.41;32.96;30.78;23.14;0.77
77638;SPS30;66802;52.574;14.398;2023-02-12T07:58:43;9.04;8.14;6.35;3.92;31.38;31.25;30.80;28.58;21.15;0.77
77638;SPS30;66802;52.574;14.398;2023-02-12T08:01:11;9.54;8.59;6.71;4.15;33.26;33.12;32.64;30.31;22.47;0.78
77638;SPS30;66802;52.574;14.398;2023-02-12T08:03:42;9.54;8.55;6.57;3.92;31.40;31.26;30.76;28.32;20.55;0.82
77638;SPS30;66802;52.574;14.398;2023-02-12T08:06:09;74.30;70.69;63.48;51.65;412.70;412.13;410.21;400.39;333.28;0.64
77638;SPS30;66802;52.574;14.398;2023-02-12T08:08:57;89.68;87.04;81.77;71.21;568.77;568.31;566.84;558.83;475.07;0.61
77638;SPS30;66802;52.574;14.398;2023-02-12T08:11:25;26.58;25.90;24.54;21.63;172.75;172.63;172.24;170.10;145.11;0.60
77638;SPS30;66802;52.574;14.398;2023-02-12T08:13:52;16.07;15.36;13.94;11.52;92.07;91.96;91.58;89.61;74.98;0.66
77638;SPS30;66802;52.574;14.398;2023-02-12T08:16:19;9.93;9.41;8.37;6.70;53.55;53.47;53.19;51.79;42.89;0.67
77638;SPS30;66802;52.574;14.398;2023-02-12T08:18:47;67.66;64.95;59.55;50.02;399.66;399.22;397.76;390.11;328.07;0.64
77638;SPS30;66802;52.574;14.398;2023-02-12T08:21:14;63.38;61.74;58.46;51.47;411.13;410.84;409.91;404.75;345.19;0.60
77638;SPS30;66802;52.574;14.398;2023-02-12T08:23:44;51.23;49.96;47.44;41.92;334.84;334.61;333.89;329.86;281.62;0.59
77638;SPS30;66802;52.574;14.398;2023-02-12T08:26:18;19.18;18.84;18.18;16.42;131.14;131.07;130.87;129.68;111.39;0.57
77638;SPS30;66802;52.574;14.398;2023-02-12T08:28:46;11.49;11.12;10.39;8.97;71.66;71.59;71.39;70.30;59.62;0.62
77638;SPS30;66802;52.574;14.398;2023-02-12T08:31:21;6.84;6.50;5.82;4.71;37.66;37.61;37.43;36.51;30.34;0.66
77638;SPS30;66802;52.574;14.398;2023-02-12T08:33:50;7.14;6.65;5.69;4.26;34.06;33.99;33.74;32.49;26.26;0.69
77638;SPS30;66802;52.574;14.398;2023-02-12T08:36:18;7.16;6.60;5.48;3.88;31.02;30.94;30.65;29.23;23.11;0.72
77638;SPS30;66802;52.574;14.398;2023-02-12T08:38:46;7.90;7.20;5.80;3.87;30.95;30.84;30.49;28.74;22.11;0.75
77638;SPS30;66802;52.574;14.398;2023-02-12T08:41:13;9.07;8.18;6.41;4.00;32.01;31.89;31.43;29.23;21.76;0.77
77638;SPS30;66802;52.574;14.398;2023-02-12T08:43:42;8.40;7.59;5.98;3.79;30.31;30.19;29.78;27.78;20.83;0.76
77638;SPS30;66802;52.574;14.398;2023-02-12T08:46:09;8.79;7.94;6.26;3.96;31.70;31.58;31.15;29.06;21.79;0.78
77638;SPS30;66802;52.574;14.398;2023-02-12T08:48:37;9.26;8.46;6.87;4.66;37.26;37.14;36.73;34.74;26.94;0.74
77638;SPS30;66802;52.574;14.398;2023-02-12T08:51:07;9.21;8.44;6.91;4.74;37.94;37.83;37.43;35.50;27.69;0.74
77638;SPS30;66802;52.574;14.398;2023-02-12T08:53:35;7.83;7.17;5.85;4.00;32.00;31.90;31.56;29.90;23.28;0.72
77638;SPS30;66802;52.574;14.398;2023-02-12T08:56:02;7.35;6.73;5.49;3.76;30.05;29.96;29.64;28.08;21.87;0.73
77638;SPS30;66802;52.574;14.398;2023-02-12T08:58:28;8.35;7.59;6.08;3.99;31.91;31.80;31.41;29.52;22.55;0.75
77638;SPS30;66802;52.574;14.398;2023-02-12T09:00:53;7.91;7.18;5.74;3.74;29.93;29.83;29.46;27.65;21.05;0.76
77638;SPS30;66802;52.574;14.398;2023-02-12T09:03:19;8.02;7.31;5.91;3.96;31.65;31.55;31.19;29.43;22.69;0.75
77638;SPS30;66802;52.574;14.398;2023-02-12T09:05:45;8.62;7.79;6.14;3.89;31.13;31.01;30.59;28.54;21.41;0.79
77638;SPS30;66802;52.574;14.398;2023-02-12T09:08:10;9.79;8.76;6.70;3.94;31.56;31.42;30.89;28.36;20.41;0.83
77638;SPS30;66802;52.574;14.398;2023-02-12T09:10:40;8.76;7.88;6.13;3.76;30.08;29.96;29.51;27.34;20.16;0.77
77638;SPS30;66802;52.574;14.398;2023-02-12T09:13:07;8.88;8.02;6.29;3.94;31.52;31.40;30.96;28.81;21.49;0.76
77638;SPS30;66802;52.574;14.398;2023-02-12T09:15:41;8.60;7.75;6.06;3.76;30.11;29.99;29.55;27.46;20.38;0.79
77638;SPS30;66802;52.574;14.398;2023-02-12T09:18:09;10.41;9.27;6.99;3.96;31.70;31.54;30.96;28.16;19.78;0.86
77638;SPS30;66802;52.574;14.398;2023-02-12T09:20:37;9.90;8.85;6.74;3.93;31.45;31.30;30.76;28.17;20.15;0.84
77638;SPS30;66802;52.574;14.398;2023-02-12T09:23:04;9.66;8.64;6.60;3.88;31.06;30.91;30.39;27.89;20.05;0.85
77638;SPS30;66802;52.574;14.398;2023-02-12T09:25:34;9.43;8.42;6.40;3.71;29.68;29.54;29.03;26.54;18.92;0.85
77638;SPS30;66802;52.574;14.398;2023-02-12T09:28:03;8.81;7.85;5.94;3.40;27.26;27.13;26.64;24.30;17.19;0.85
77638;SPS30;66802;52.574;14.398;2023-02-12T09:30:29;9.03;8.03;6.03;3.37;27.02;26.88;26.37;23.92;16.67;0.86
77638;SPS30;66802;52.574;14.398;2023-02-12T09:32:54;10.07;8.98;6.81;3.91;31.28;31.13;30.57;27.90;19.77;0.82
77638;SPS30;66802;52.574;14.398;2023-02-12T09:35:21;10.70;9.52;7.15;4.01;32.09;31.92;31.32;28.41;19.82;0.85
77638;SPS30;66802;52.574;14.398;2023-02-12T09:37:47;10.03;8.95;6.78;3.90;31.21;31.05;30.50;27.84;19.74;0.83
77638;SPS30;66802;52.574;14.398;2023-02-12T09:40:17;9.43;8.43;6.43;3.75;30.06;29.91;29.40;26.94;19.30;0.81
77638;SPS30;66802;52.574;14.398;2023-02-12T09:46:11;11.16;9.99;7.66;4.54;36.35;36.18;35.58;32.71;23.64;0.80
77638;SPS30;66802;52.574;14.398;2023-02-12T09:48:41;10.89;9.79;7.59;4.62;37.00;36.85;36.28;33.56;24.65;0.78
77638;SPS30;66802;52.574;14.398;2023-02-12T09:51:19;9.87;8.96;7.13;4.61;36.91;36.77;36.30;34.02;25.81;0.74
77638;SPS30;66802;52.574;14.398;2023-02-12T09:53:46;9.95;9.09;7.38;4.99;39.91;39.79;39.35;37.19;28.81;0.72
77638;SPS30;66802;52.574;14.398;2023-02-12T09:56:19;9.04;8.39;7.09;5.20;41.57;41.47;41.14;39.48;31.65;0.67
77638;SPS30;66802;52.574;14.398;2023-02-12T09:58:56;10.86;9.94;8.11;5.54;44.33;44.20;43.73;41.42;32.24;0.74
77638;SPS30;66802;52.574;14.398;2023-02-12T10:01:27;9.90;9.10;7.52;5.26;42.06;41.94;41.53;39.52;31.08;0.73
77638;SPS30;66802;52.574;14.398;2023-02-12T10:03:53;9.63;8.96;7.61;5.63;45.04;44.94;44.59;42.86;34.49;0.69
77638;SPS30;66802;52.574;14.398;2023-02-12T10:15:15;9.32;8.69;7.42;5.55;44.38;44.28;43.95;42.32;34.19;0.67
77638;SPS30;66802;52.574;14.398;2023-02-12T10:17:47;9.59;8.92;7.57;5.60;44.77;44.67;44.32;42.59;34.26;0.68
77638;SPS30;66802;52.574;14.398;2023-02-12T10:26:30;9.60;9.12;8.17;6.62;52.93;52.86;52.60;51.31;42.66;0.62
77638;SPS30;66802;52.574;14.398;2023-02-12T10:29:14;10.30;9.75;8.67;6.94;55.48;55.40;55.11;53.66;44.42;0.64
77638;SPS30;66802;52.574;14.398;2023-02-12T10:31:50;10.19;9.62;8.48;6.70;53.56;53.47;53.17;51.66;42.58;0.65
77638;SPS30;66802;52.574;14.398;2023-02-12T10:34:21;10.16;9.60;8.47;6.69;53.48;53.39;53.10;51.59;42.53;0.65
77638;SPS30;66802;52.574;14.398;2023-02-12T10:36:50;10.07;9.49;8.35;6.56;52.40;52.32;52.01;50.49;41.53;0.64
77638;SPS30;66802;52.574;14.398;2023-02-12T10:39:28;10.85;10.27;9.12;7.29;58.23;58.14;57.83;56.29;46.58;0.62
77638;SPS30;66802;52.574;14.398;2023-02-12T10:42:01;9.59;9.19;8.37;6.97;55.65;55.59;55.37;54.23;45.47;0.60
77638;SPS30;66802;52.574;14.398;2023-02-12T10:44:46;17.30;16.65;15.34;12.98;103.71;103.60;103.24;101.37;85.44;0.61
77638;SPS30;66802;52.574;14.398;2023-02-12T10:47:16;74.95;72.99;69.07;60.76;485.35;484.99;483.88;477.74;407.34;0.60
77638;SPS30;66802;52.574;14.398;2023-02-12T10:49:47;54.41;53.03;50.28;44.36;354.31;354.06;353.28;348.92;297.75;0.61
77638;SPS30;66802;52.574;14.398;2023-02-12T10:54:48;9.19;8.84;8.12;6.85;54.71;54.65;54.46;53.44;44.99;0.62
77638;SPS30;66802;52.574;14.398;2023-02-12T10:57:25;9.12;8.76;8.03;6.75;53.97;53.91;53.71;52.69;44.32;0.59
77638;SPS30;66802;52.574;14.398;2023-02-12T10:59:55;9.34;8.86;7.90;6.35;50.76;50.69;50.43;49.13;40.74;0.62
77638;SPS30;66802;52.574;14.398;2023-02-12T11:02:38;8.74;8.33;7.51;6.15;49.12;49.05;48.83;47.71;39.79;0.62
77638;SPS30;66802;52.574;14.398;2023-02-12T11:05:37;7.34;7.01;6.34;5.23;41.76;41.71;41.53;40.61;33.95;0.61
77638;SPS30;66802;52.574;14.398;2023-02-12T11:07:58;6.96;6.65;6.04;4.99;39.88;39.84;39.67;38.82;32.48;0.62
77638;SPS30;66802;52.574;14.398;2023-02-12T11:10:26;6.40;6.11;5.53;4.56;36.42;36.38;36.22;35.42;29.61;0.60
77638;SPS30;66802;52.574;14.398;2023-02-12T11:12:56;6.96;6.63;5.95;4.84;38.66;38.61;38.43;37.51;31.22;0.61
77638;SPS30;66802;52.574;14.398;2023-02-12T11:15:28;7.10;6.78;6.14;5.06;40.43;40.38;40.21;39.32;32.87;0.60
77638;SPS30;66802;52.574;14.398;2023-02-12T11:18:02;7.71;7.43;6.86;5.82;46.51;46.46;46.31;45.49;38.38;0.59
77638;SPS30;66802;52.574;14.398;2023-02-12T11:23:25;7.89;7.52;6.78;5.55;44.39;44.33;44.13;43.12;35.98;0.62
77638;SPS30;66802;52.574;14.398;2023-02-12T11:28:27;7.63;7.31;6.67;5.57;44.51;44.45;44.28;43.39;36.42;0.59
77638;SPS30;66802;52.574;14.398;2023-02-12T11:33:24;7.86;7.44;6.61;5.28;42.19;42.12;41.90;40.78;33.74;0.62
77638;SPS30;66802;52.574;14.398;2023-02-12T11:35:56;8.12;7.64;6.68;5.20;41.55;41.47;41.22;39.96;32.76;0.66
77638;SPS30;66802;52.574;14.398;2023-02-12T11:38:29;8.37;7.87;6.86;5.33;42.58;42.50;42.24;40.92;33.52;0.66
77638;SPS30;66802;52.574;14.398;2023-02-12T11:41:22;7.01;6.57;5.69;4.37;34.89;34.83;34.60;33.45;27.28;0.66
77638;SPS30;66802;52.574;14.398;2023-02-12T11:43:58;6.60;6.23;5.48;4.32;34.51;34.45;34.26;33.27;27.39;0.64
77638;SPS30;66802;52.574;14.398;2023-02-12T11:46:26;5.75;5.43;4.78;3.76;30.05;30.00;29.82;28.96;23.84;0.63
77638;SPS30;66802;52.574;14.398;2023-02-12T11:48:53;4.44;4.21;3.74;2.99;23.88;23.85;23.72;23.09;19.11;0.62
77638;SPS30;66802;52.574;14.398;2023-02-12T11:51:25;4.89;4.62;4.07;3.22;25.73;25.69;25.54;24.82;20.46;0.64
77638;SPS30;66802;52.574;14.398;2023-02-12T11:53:54;6.35;6.00;5.31;4.21;33.68;33.63;33.45;32.52;26.85;0.64
77638;SPS30;66802;52.574;14.398;2023-02-12T11:56:25;5.97;5.63;4.96;3.92;31.32;31.27;31.10;30.21;24.89;0.64
77638;SPS30;66802;52.574;14.398;2023-02-12T12:02:08;5.77;5.42;4.72;3.66;29.22;29.17;28.99;28.07;22.97;0.65
77638;SPS30;66802;52.574;14.398;2023-02-12T12:04:51;5.92;5.61;4.99;4.00;31.93;31.88;31.72;30.89;25.58;0.63
77638;SPS30;66802;52.574;14.398;2023-02-12T12:07:29;5.96;5.65;5.02;4.02;32.16;32.11;31.95;31.11;25.77;0.63
77638;SPS30;66802;52.574;14.398;2023-02-12T12:10:03;6.38;6.02;5.31;4.19;33.48;33.43;33.24;32.29;26.60;0.64
77638;SPS30;66802;52.574;14.398;2023-02-12T12:12:40;5.84;5.57;5.02;4.11;32.83;32.78;32.64;31.89;26.59;0.63
77638;SPS30;66802;52.574;14.398;2023-02-12T12:23:56;5.54;5.30;4.82;3.99;31.90;31.86;31.73;31.06;26.01;0.60
77638;SPS30;66802;52.574;14.398;2023-02-12T12:26:30;5.76;5.49;4.95;4.05;32.39;32.35;32.21;31.47;26.25;0.61
77638;SPS30;66802;52.574;14.398;2023-02-12T12:31:46;5.44;5.17;4.63;3.76;30.03;29.99;29.85;29.12;24.22;0.62
77638;SPS30;66802;52.574;14.398;2023-02-12T12:34:34;6.09;5.74;5.04;3.95;31.57;31.52;31.33;30.41;25.00;0.64
77638;SPS30;66802;52.574;14.398;2023-02-12T12:45:29;4.62;4.48;4.18;3.61;28.86;28.84;28.75;28.32;24.01;0.59
77638;SPS30;66802;52.574;14.398;2023-02-12T12:59:38;4.32;4.17;3.86;3.29;26.31;26.28;26.19;25.75;21.75;0.58
77638;SPS30;66802;52.574;14.398;2023-02-12T13:14:07;4.31;4.19;3.96;3.48;27.79;27.77;27.70;27.34;23.30;0.56
77638;SPS30;66802;52.574;14.398;2023-02-12T13:16:50;4.27;4.14;3.87;3.36;26.80;26.78;26.71;26.31;22.34;0.58
77638;SPS30;66802;52.574;14.398;2023-02-12T13:19:50;4.30;4.17;3.91;3.40;27.12;27.10;27.03;26.63;22.62;0.58
77638;SPS30;66802;52.574;14.398;2023-02-12T13:25:14;4.22;4.10;3.85;3.37;26.88;26.86;26.79;26.43;22.48;0.56
77638;SPS30;66802;52.574;14.398;2023-02-12T13:27:51;4.02;3.91;3.69;3.23;25.83;25.81;25.75;25.41;21.64;0.56
77638;SPS30;66802;52.574;14.398;2023-02-12T13:30:24;4.00;3.90;3.70;3.26;26.07;26.05;26.00;25.68;21.91;0.57
77638;SPS30;66802;52.574;14.398;2023-02-12T13:33:17;4.19;4.08;3.88;3.42;27.35;27.33;27.27;26.94;22.99;0.57
77638;SPS30;66802;52.574;14.398;2023-02-12T13:35:48;4.09;3.99;3.79;3.35;26.77;26.75;26.69;26.37;22.52;0.56
77638;SPS30;66802;52.574;14.398;2023-02-12T13:38:22;4.26;4.16;3.96;3.52;28.08;28.06;28.00;27.68;23.66;0.57
77638;SPS30;66802;52.574;14.398;2023-02-12T13:40:53;4.41;4.32;4.15;3.72;29.74;29.72;29.67;29.37;25.18;0.56
77638;SPS30;66802;52.574;14.398;2023-02-12T13:46:28;4.29;4.22;4.08;3.70;29.56;29.55;29.51;29.25;25.15;0.55
77638;SPS30;66802;52.574;14.398;2023-02-12T13:50:05;4.31;4.25;4.12;3.75;29.93;29.91;29.87;29.63;25.50;0.55
77638;SPS30;66802;52.574;14.398;2023-02-12T13:52:05;4.20;4.15;4.05;3.71;29.65;29.64;29.60;29.39;25.36;0.55
77638;SPS30;66802;52.574;14.398;2023-02-12T13:54:51;4.31;4.27;4.19;3.86;30.83;30.82;30.79;30.60;26.43;0.53
77638;SPS30;66802;52.574;14.398;2023-02-12T13:57:45;4.55;4.51;4.44;4.12;32.92;32.91;32.88;32.70;28.29;0.51
77638;SPS30;66802;52.574;14.398;2023-02-12T14:03:14;4.95;4.92;4.87;4.54;36.21;36.20;36.18;36.00;31.19;0.50
77638;SPS30;66802;52.574;14.398;2023-02-12T14:05:40;4.58;4.54;4.45;4.11;32.79;32.78;32.75;32.54;28.12;0.53
77638;SPS30;66802;52.574;14.398;2023-02-12T14:08:06;4.53;4.49;4.40;4.07;32.48;32.46;32.44;32.23;27.86;0.54
77638;SPS30;66802;52.574;14.398;2023-02-12T14:11:03;4.25;4.22;4.14;3.84;30.63;30.61;30.59;30.41;26.29;0.53
77638;SPS30;66802;52.574;14.398;2023-02-12T14:13:44;4.12;4.08;4.01;3.70;29.57;29.56;29.53;29.35;25.37;0.54
77638;SPS30;66802;52.574;14.398;2023-02-12T14:19:51;5.26;5.23;5.17;4.82;38.45;38.44;38.42;38.22;33.12;0.52
77638;SPS30;66802;52.574;14.398;2023-02-12T14:21:59;5.60;5.53;5.41;4.97;39.69;39.68;39.64;39.37;33.97;0.54
77638;SPS30;66802;52.574;14.398;2023-02-12T14:38:02;6.16;6.13;6.05;5.64;45.03;45.02;44.99;44.76;38.77;0.52
77638;SPS30;66802;52.574;14.398;2023-02-12T14:40:52;6.07;6.03;5.94;5.52;44.06;44.04;44.01;43.77;37.88;0.52
77638;SPS30;66802;52.574;14.398;2023-02-12T14:54:47;5.17;5.15;5.11;4.79;38.21;38.20;38.18;38.01;32.97;0.50
77638;SPS30;66802;52.574;14.398;2023-02-12T15:00:41;4.63;4.61;4.57;4.27;34.11;34.10;34.08;33.92;29.42;0.50
77638;SPS30;66802;52.574;14.398;2023-02-12T15:02:47;4.81;4.79;4.76;4.47;35.69;35.68;35.66;35.51;30.82;0.49
77638;SPS30;66802;52.574;14.398;2023-02-12T15:11:07;4.10;4.09;4.07;3.82;30.48;30.47;30.46;30.33;26.33;0.50
77638;SPS30;66802;52.574;14.398;2023-02-12T15:16:13;4.41;4.40;4.38;4.11;32.85;32.85;32.83;32.70;28.39;0.49
77638;SPS30;66802;52.574;14.398;2023-02-12T15:18:53;4.32;4.31;4.29;4.03;32.21;32.20;32.19;32.06;27.84;0.49
77638;SPS30;66802;52.574;14.398;2023-02-12T15:21:32;4.14;4.12;4.07;3.80;30.33;30.32;30.30;30.15;26.13;0.51
77638;SPS30;66802;52.574;14.398;2023-02-12T15:24:07;4.04;4.01;3.95;3.66;29.22;29.21;29.19;29.02;25.11;0.53